Bookmark and Share
Track history (hours):
 

Pilot L239

Last reported at 2014-Apr-23 18:27 UTC. Time now 2014-Apr-24 00:27 UTC.
Position N 60°06' E 025°06'.

Length 15 m.

Type: Pilot. MMSI: 230035440.

NotesDate/timePositionNaut miles runAvg speedWind from/ knotsBaromVisibWave heightAir tempDewpointWater temp
2014-Apr-23 18:27N 60°06' E 025°06'4 0.9
2014-Apr-23 14:29N 60°06' E 024°58'2 2.2
2014-Apr-23 13:33N 60°07' E 025°02'2 1.6
2014-Apr-23 12:15N 60°06' E 024°58'0 0.0
2014-Apr-23 10:33N 60°06' E 024°58'0 0.0
2014-Apr-23 09:29N 60°06' E 024°58'0 0.0
2014-Apr-23 08:09N 60°06' E 024°58'1 1.1
2014-Apr-23 07:33N 60°07' E 024°60'1 0.3
2014-Apr-23 05:09N 60°06' E 024°58'0 0.0
2014-Apr-23 04:16N 60°06' E 024°58'0 0.0
2014-Apr-23 03:13N 60°06' E 024°58'0 0.0
2014-Apr-22 17:19N 60°06' E 024°59'0 0.1
2014-Apr-22 15:09N 60°06' E 024°58'3 5.4
2014-Apr-22 14:33N 60°07' E 025°05'3 1.6
2014-Apr-22 12:30N 60°06' E 024°58'0 0.0
2014-Apr-22 11:31N 60°06' E 024°58'0 0.0
2014-Apr-22 10:27N 60°06' E 024°58'0 0.0
2014-Apr-22 09:10N 60°06' E 024°58'0 0.0
2014-Apr-22 08:24N 60°06' E 024°58'6 3.2
2014-Apr-22 06:33N 60°05' E 025°10'6 2.9
2014-Apr-22 04:32N 60°06' E 024°58'0 0.0
2014-Apr-22 03:21N 60°06' E 024°58'0 0.0
2014-Apr-22 02:31N 60°06' E 024°58'0 0.0
2014-Apr-21 18:18N 60°06' E 024°58'1 1.8
2014-Apr-21 17:33N 60°07' E 025°01'1 1.2
2014-Apr-21 16:26N 60°06' E 024°58'0 0.2
2014-Apr-21 15:33N 60°06' E 024°59'0 0.2
2014-Apr-21 14:34N 60°06' E 024°58'0 0.0
2014-Apr-21 13:29N 60°06' E 024°58'1 1.5
2014-Apr-21 12:33N 60°07' E 025°01'1 0.7
2014-Apr-21 10:28N 60°06' E 024°58'0 0.0
2014-Apr-21 09:24N 60°06' E 024°58'0 0.0
2014-Apr-21 07:06N 60°06' E 024°58'0 0.0
2014-Apr-21 04:31N 60°06' E 024°58'1 1.0
2014-Apr-21 03:34N 60°05' E 024°58'1 0.1
2014-Apr-20 18:20N 60°06' E 024°58'2 3.2
2014-Apr-20 17:33N 60°09' E 024°58'2 2.4
2014-Apr-20 16:30N 60°06' E 024°58'0 0.0
2014-Apr-20 15:33N 60°06' E 024°58'0 0.0
2014-Apr-20 14:33N 60°06' E 024°58'0 0.0
2014-Apr-20 06:19N 60°06' E 024°58'0 0.0
2014-Apr-20 05:21N 60°06' E 024°58'0 0.0
2014-Apr-20 04:25N 60°06' E 024°58'0 0.0
2014-Apr-20 03:32N 60°06' E 024°58'6 0.7
2014-Apr-19 18:10N 60°07' E 025°11'610.8
2014-Apr-19 17:34N 60°06' E 024°58'0 0.0
2014-Apr-19 16:32N 60°06' E 024°58'4 4.0
2014-Apr-19 15:33N 60°06' E 025°06'4 4.0
2014-Apr-19 14:33N 60°06' E 024°58'4 0.7
2014-Apr-19 09:13N 60°10' E 024°58'4 5.6
2014-Apr-19 08:31N 60°06' E 024°58'0 0.0
2014-Apr-19 07:23N 60°06' E 024°58'0 0.0
2014-Apr-19 06:33N 60°06' E 024°58'0 0.0
2014-Apr-19 05:33N 60°06' E 024°58'0 0.0
2014-Apr-19 04:33N 60°06' E 024°58'0 0.0
2014-Apr-19 03:33N 60°06' E 024°58'0 0.0
2014-Apr-18 18:10N 60°06' E 024°58'0 0.0
2014-Apr-18 16:16N 60°06' E 024°58'5 3.0
2014-Apr-18 14:25N 60°05' E 025°09'5 6.1
2014-Apr-18 13:31N 60°06' E 024°58'0 0.0
2014-Apr-18 12:26N 60°06' E 024°58'0 0.0
2014-Apr-18 11:32N 60°06' E 024°58'0 0.0
2014-Apr-18 09:22N 60°06' E 024°58'0 0.0
2014-Apr-18 08:13N 60°06' E 024°58'3 0.2
2014-Apr-17 18:05N 60°07' E 025°04'0 0.2
2014-Apr-17 15:34N 60°07' E 025°05'3 2.1
2014-Apr-17 14:07N 60°06' E 024°58'0 0.0
2014-Apr-17 12:16N 60°06' E 024°58'0 0.0
2014-Apr-17 11:18N 60°06' E 024°58'0 0.0
2014-Apr-17 10:17N 60°06' E 024°58'4 0.7
2014-Apr-17 04:32N 60°10' E 024°58'4 0.4
2014-Apr-16 18:06N 60°06' E 024°59'1 1.3
2014-Apr-16 17:29N 60°06' E 025°00'1 0.9
2014-Apr-16 16:16N 60°06' E 024°58'0 0.0
2014-Apr-16 15:33N 60°06' E 024°58'0 0.0
2014-Apr-16 14:24N 60°06' E 024°58'0 0.0
2014-Apr-16 13:23N 60°06' E 024°58'0 0.0
2014-Apr-16 12:32N 60°06' E 024°58'0 0.0
2014-Apr-16 11:30N 60°06' E 024°58'0 0.0
2014-Apr-16 10:07N 60°06' E 024°58'0 0.0
2014-Apr-16 09:13N 60°06' E 024°58'0 0.0
2014-Apr-16 08:31N 60°06' E 024°58'0 0.0
2014-Apr-16 07:04N 60°06' E 024°58'0 0.0
2014-Apr-16 06:28N 60°06' E 024°58'0 0.0
2014-Apr-16 05:30N 60°06' E 024°58'0 0.0
2014-Apr-16 04:32N 60°06' E 024°58'0 0.0
2014-Apr-15 16:06N 60°06' E 024°58'0 0.0
2014-Apr-15 12:33N 60°06' E 024°58'0 0.4
2014-Apr-15 11:32N 60°06' E 024°59'0 0.4
2014-Apr-15 10:34N 60°06' E 024°58'0 0.0
2014-Apr-15 06:33N 60°06' E 024°58'0 0.0
2014-Apr-15 03:29N 60°06' E 024°58'0 0.0
2014-Apr-15 02:34N 60°06' E 024°58'1 0.1
2014-Apr-14 16:34N 60°06' E 024°60'6 5.5
2014-Apr-14 15:34N 60°05' E 025°10'6 2.9
2014-Apr-14 13:30N 60°06' E 024°58'0 0.0
2014-Apr-14 08:32N 60°06' E 024°58'6 2.8
2014-Apr-14 06:33N 60°05' E 025°09'  

Dump ship's entire track history

sailing weather and tide predictions

Pilot L239 — OJ9461 — position and weather